createdAt,value
2023-03-07T00:02:18.668Z,6.67
2023-03-07T00:07:18.938Z,6.90
2023-03-07T00:12:29.367Z,5.57
2023-03-07T00:14:59.526Z,5.60
2023-03-07T00:17:29.746Z,5.07
2023-03-07T00:19:59.840Z,5.90
2023-03-07T00:22:29.945Z,5.23
2023-03-07T00:25:02.830Z,5.00
2023-03-07T00:27:40.268Z,4.70
2023-03-07T00:30:12.802Z,4.80
2023-03-07T00:32:42.946Z,5.00
2023-03-07T00:35:16.046Z,4.47
2023-03-07T00:37:46.167Z,4.30
2023-03-07T00:40:21.439Z,3.87
2023-03-07T00:42:51.572Z,3.53
2023-03-07T00:45:21.768Z,3.83
2023-03-07T00:47:52.375Z,3.40
2023-03-07T00:50:22.600Z,3.37
2023-03-07T00:52:52.718Z,3.67
2023-03-07T00:55:25.501Z,3.10
2023-03-07T00:57:55.584Z,3.50
2023-03-07T01:00:25.885Z,3.17
2023-03-07T01:02:58.647Z,3.00
2023-03-07T01:05:30.405Z,2.50
2023-03-07T01:08:00.526Z,2.70
2023-03-07T01:10:33.553Z,2.70
2023-03-07T01:13:04.873Z,2.90
2023-03-07T01:15:37.199Z,2.43
2023-03-07T01:18:08.563Z,2.97
2023-03-07T01:20:42.651Z,2.63
2023-03-07T01:23:12.812Z,2.50
2023-03-07T01:25:48.776Z,2.07
2023-03-07T01:28:19.965Z,2.10
2023-03-07T01:31:01.116Z,1.70
2023-03-07T01:33:31.218Z,1.60
2023-03-07T01:36:01.574Z,1.67
2023-03-07T01:38:34.181Z,1.90
2023-03-07T01:41:09.914Z,1.90
2023-03-07T01:43:40.612Z,1.70
2023-03-07T01:46:43.948Z,1.70
2023-03-07T01:49:23.745Z,2.10
2023-03-07T01:52:02.400Z,1.73
2023-03-07T01:54:36.867Z,1.90
2023-03-07T01:57:10.850Z,1.50
2023-03-07T01:59:49.416Z,1.37
2023-03-07T02:02:24.967Z,1.90
2023-03-07T02:05:04.435Z,1.80
2023-03-07T02:07:43.480Z,1.93
2023-03-07T02:10:18.323Z,1.90
2023-03-07T02:12:51.706Z,1.83
2023-03-07T02:15:22.267Z,1.80
2023-03-07T02:17:56.569Z,2.20
2023-03-07T02:20:43.552Z,1.90
2023-03-07T02:23:26.765Z,2.20
2023-03-07T02:26:07.661Z,2.10
2023-03-07T02:28:43.323Z,2.47
2023-03-07T02:31:14.142Z,2.50
2023-03-07T02:33:44.276Z,2.10
2023-03-07T02:36:21.818Z,2.57
2023-03-07T02:38:55.816Z,2.70
2023-03-07T02:41:33.147Z,2.93
2023-03-07T02:44:05.907Z,2.87
2023-03-07T02:46:39.049Z,2.73
2023-03-07T02:49:09.116Z,3.27
2023-03-07T02:51:39.245Z,3.00
2023-03-07T02:54:10.828Z,3.10
2023-03-07T02:56:41.069Z,3.10
2023-03-07T02:59:14.043Z,3.20
2023-03-07T03:01:44.294Z,3.57
2023-03-07T03:04:14.672Z,3.17
2023-03-07T03:06:45.640Z,3.33
2023-03-07T03:09:15.926Z,3.30
2023-03-07T03:11:46.505Z,3.87
2023-03-07T03:14:19.228Z,3.30
2023-03-07T03:16:49.760Z,3.40
2023-03-07T03:19:19.908Z,3.33
2023-03-07T03:21:53.354Z,3.80
2023-03-07T03:24:23.473Z,3.93
2023-03-07T03:26:53.723Z,3.60
2023-03-07T03:29:27.730Z,3.93
2023-03-07T03:31:58.017Z,3.60
2023-03-07T03:34:28.392Z,3.77
2023-03-07T03:36:58.896Z,4.13
2023-03-07T03:39:29.573Z,4.27
2023-03-07T03:42:00.063Z,4.50
2023-03-07T03:44:32.765Z,3.90
2023-03-07T03:47:03.415Z,4.10
2023-03-07T03:49:36.137Z,4.47
2023-03-07T03:52:07.725Z,4.97
2023-03-07T03:54:38.690Z,4.40
2023-03-07T03:57:09.029Z,5.13
2023-03-07T03:59:41.791Z,4.70
2023-03-07T04:02:12.540Z,5.40
2023-03-07T04:04:42.827Z,5.43
2023-03-07T04:07:12.985Z,5.07
2023-03-07T04:09:44.042Z,4.80
2023-03-07T04:12:14.220Z,5.53
2023-03-07T04:14:47.007Z,5.47
2023-03-07T04:17:17.190Z,4.67
2023-03-07T04:19:47.330Z,5.20
2023-03-07T04:22:17.567Z,5.50
2023-03-07T04:24:48.518Z,5.13
2023-03-07T04:27:18.761Z,5.43
2023-03-07T04:29:51.949Z,5.63
2023-03-07T04:32:22.116Z,6.47
2023-03-07T04:34:52.260Z,5.83
2023-03-07T04:37:22.412Z,6.40
2023-03-07T04:39:52.500Z,5.80
2023-03-07T04:42:22.666Z,6.30
2023-03-07T04:44:55.349Z,6.33
2023-03-07T04:47:25.475Z,5.90
2023-03-07T04:49:55.742Z,6.50
2023-03-07T04:52:25.903Z,6.73
2023-03-07T04:54:56.004Z,7.20
2023-03-07T04:57:26.191Z,7.17
2023-03-07T04:59:58.906Z,6.53
2023-03-07T05:02:30.620Z,6.37
2023-03-07T05:05:05.921Z,7.30
2023-03-07T05:07:38.876Z,6.77
2023-03-07T05:10:11.333Z,6.50
2023-03-07T05:12:41.542Z,6.90
2023-03-07T05:15:17.114Z,6.63
2023-03-07T05:17:47.227Z,7.47
2023-03-07T05:20:17.508Z,6.60
2023-03-07T05:22:47.899Z,11.10
2023-03-07T05:25:18.071Z,9.23
2023-03-07T05:27:48.361Z,15.03
2023-03-07T05:30:21.716Z,12.80
2023-03-07T05:32:51.822Z,7.10
2023-03-07T05:35:25.155Z,7.13
2023-03-07T05:37:55.576Z,7.23
2023-03-07T05:40:25.807Z,7.17
2023-03-07T05:42:56.167Z,7.60
2023-03-07T05:45:28.929Z,7.77
2023-03-07T05:47:58.996Z,7.10
2023-03-07T05:50:30.730Z,7.10
2023-03-07T05:53:00.874Z,7.10
2023-03-07T05:55:31.044Z,7.60
2023-03-07T05:58:01.148Z,8.33
2023-03-07T06:00:35.190Z,7.27
2023-03-07T06:03:06.578Z,7.53
2023-03-07T06:05:37.179Z,7.13
2023-03-07T06:08:07.860Z,6.90
2023-03-07T06:10:41.127Z,7.57
2023-03-07T06:13:18.266Z,7.40
2023-03-07T06:15:53.192Z,6.80
2023-03-07T06:18:28.043Z,7.30
2023-03-07T06:21:00.778Z,7.43
2023-03-07T06:23:36.311Z,6.70
2023-03-07T06:26:08.392Z,7.53
2023-03-07T06:28:39.737Z,6.30
2023-03-07T06:31:18.624Z,6.87
2023-03-07T06:33:50.364Z,6.30
2023-03-07T06:36:26.558Z,6.60
2023-03-07T06:38:56.714Z,7.27
2023-03-07T06:41:26.823Z,6.70
2023-03-07T06:43:57.244Z,6.53
2023-03-07T06:46:30.107Z,5.97
2023-03-07T06:49:02.744Z,6.63
2023-03-07T06:51:32.873Z,6.60
2023-03-07T06:54:03.107Z,5.97
2023-03-07T06:56:34.400Z,6.17
2023-03-07T06:59:04.939Z,6.87
2023-03-07T07:01:38.328Z,5.90
2023-03-07T07:04:08.939Z,6.27
2023-03-07T07:06:39.015Z,5.90
2023-03-07T07:09:09.283Z,6.63
2023-03-07T07:11:39.447Z,6.40
2023-03-07T07:14:11.996Z,6.47
2023-03-07T07:16:45.040Z,5.87
2023-03-07T07:19:15.160Z,6.17
2023-03-07T07:21:45.746Z,6.43
2023-03-07T07:24:18.564Z,6.60
2023-03-07T07:26:48.699Z,5.80
2023-03-07T07:29:18.838Z,5.87
2023-03-07T07:31:52.368Z,6.47
2023-03-07T07:34:22.515Z,6.10
2023-03-07T07:36:53.310Z,6.90
2023-03-07T07:39:25.380Z,6.10
2023-03-07T07:41:55.610Z,6.57
2023-03-07T07:44:28.196Z,6.17
2023-03-07T07:47:01.041Z,6.33
2023-03-07T07:49:31.407Z,6.43
2023-03-07T07:52:01.877Z,5.43
2023-03-07T07:54:34.964Z,6.60
2023-03-07T07:57:05.187Z,5.90
2023-03-07T07:59:35.568Z,5.63
2023-03-07T08:02:08.457Z,6.03
2023-03-07T08:04:38.562Z,5.33
2023-03-07T08:07:08.700Z,5.53
2023-03-07T08:09:38.918Z,5.47
2023-03-07T08:12:13.696Z,5.43
2023-03-07T08:14:43.938Z,6.30
2023-03-07T08:17:18.925Z,5.37
2023-03-07T08:19:49.069Z,6.03
2023-03-07T08:22:19.624Z,5.40
2023-03-07T08:24:51.123Z,5.40
2023-03-07T08:27:21.279Z,5.87
2023-03-07T08:29:52.037Z,5.80
2023-03-07T08:32:27.735Z,6.60
2023-03-07T08:34:57.992Z,5.37
2023-03-07T08:37:28.213Z,5.37
2023-03-07T08:39:58.372Z,5.80
2023-03-07T08:42:28.630Z,6.03
2023-03-07T08:44:58.823Z,5.17
2023-03-07T08:47:33.860Z,5.47
2023-03-07T08:50:04.317Z,5.47
2023-03-07T08:52:34.716Z,5.13
2023-03-07T08:55:04.843Z,5.07
2023-03-07T08:57:35.044Z,4.73
2023-03-07T09:00:08.266Z,5.50
2023-03-07T09:02:41.525Z,4.93
2023-03-07T09:05:23.001Z,5.13
2023-03-07T09:07:53.415Z,4.60
2023-03-07T09:10:23.907Z,5.03
2023-03-07T09:12:55.335Z,4.70
2023-03-07T09:15:25.633Z,4.00
2023-03-07T09:17:58.454Z,4.33
2023-03-07T09:20:29.268Z,4.03
2023-03-07T09:22:59.334Z,3.97
2023-03-07T09:25:30.249Z,4.23
2023-03-07T09:28:00.809Z,4.17
2023-03-07T09:30:33.247Z,3.53
2023-03-07T09:33:08.346Z,3.80
2023-03-07T09:35:38.562Z,3.70
2023-03-07T09:38:08.814Z,3.63
2023-03-07T09:40:41.386Z,3.20
2023-03-07T09:43:22.208Z,3.53
2023-03-07T09:46:16.060Z,3.83
2023-03-07T09:49:20.736Z,3.23
2023-03-07T09:51:56.554Z,3.20
2023-03-07T09:54:35.908Z,3.40
2023-03-07T09:57:08.183Z,3.53
2023-03-07T09:59:44.578Z,3.33
2023-03-07T10:02:30.304Z,3.20
2023-03-07T10:05:16.530Z,3.67
2023-03-07T10:07:48.297Z,2.83
2023-03-07T10:10:25.530Z,3.10
2023-03-07T10:13:15.910Z,3.53
2023-03-07T10:15:50.378Z,3.30
2023-03-07T10:18:37.404Z,3.17
2023-03-07T10:21:28.167Z,3.90
2023-03-07T10:24:45.113Z,4.03
2023-03-07T10:27:18.730Z,3.03
2023-03-07T10:29:52.282Z,3.03
2023-03-07T10:32:35.044Z,3.00
2023-03-07T10:35:21.958Z,3.00
2023-03-07T10:38:02.353Z,2.83
2023-03-07T10:40:39.317Z,2.83
2023-03-07T10:43:09.785Z,2.93
2023-03-07T10:45:43.841Z,2.93
2023-03-07T10:48:22.503Z,3.60
2023-03-07T10:51:05.818Z,3.60
2023-03-07T10:53:42.081Z,3.57
2023-03-07T10:56:16.605Z,3.37
2023-03-07T10:59:04.163Z,3.43
2023-03-07T11:01:36.507Z,3.57
2023-03-07T11:04:22.883Z,3.07
2023-03-07T11:06:57.991Z,3.80
2023-03-07T11:09:34.855Z,3.60
2023-03-07T11:12:24.266Z,3.30
2023-03-07T11:14:58.162Z,3.80
2023-03-07T11:17:41.305Z,4.27
2023-03-07T11:20:24.965Z,4.00
2023-03-07T11:23:20.194Z,3.67
2023-03-07T11:25:54.820Z,3.50
2023-03-07T11:28:33.529Z,3.43
2023-03-07T11:31:21.194Z,3.73
2023-03-07T11:34:00.364Z,3.43
2023-03-07T11:36:35.993Z,3.70
2023-03-07T11:39:19.158Z,3.43
2023-03-07T11:42:03.955Z,3.73
2023-03-07T11:44:47.040Z,3.60
2023-03-07T11:47:37.523Z,3.60
2023-03-07T11:50:26.923Z,3.77
2023-03-07T11:53:45.775Z,3.57
2023-03-07T11:56:58.634Z,3.70
2023-03-07T12:00:20.533Z,3.30
2023-03-07T12:03:33.177Z,3.70
2023-03-07T12:06:32.088Z,3.97
2023-03-07T12:09:43.652Z,3.50
2023-03-07T12:12:38.011Z,3.80
2023-03-07T12:15:35.775Z,3.97
2023-03-07T12:18:38.009Z,4.37
2023-03-07T12:21:26.642Z,3.83
2023-03-07T12:24:04.948Z,4.33
2023-03-07T12:26:45.613Z,4.30
2023-03-07T12:29:34.489Z,4.70
2023-03-07T12:32:14.199Z,4.60
2023-03-07T12:34:51.322Z,4.60
2023-03-07T12:37:27.505Z,5.10
2023-03-07T12:40:04.668Z,4.60
2023-03-07T12:42:44.009Z,4.37
2023-03-07T12:45:25.387Z,4.30
2023-03-07T12:48:09.859Z,4.87
2023-03-07T12:50:52.512Z,4.87
2023-03-07T12:53:37.815Z,4.73
2023-03-07T12:56:17.117Z,5.10
2023-03-07T12:59:02.599Z,5.43
2023-03-07T13:01:40.102Z,4.50
2023-03-07T13:04:20.360Z,5.20
2023-03-07T13:06:51.675Z,4.50
2023-03-07T13:09:26.123Z,5.20
2023-03-07T13:12:36.638Z,4.80
2023-03-07T13:15:11.029Z,5.00
2023-03-07T13:18:04.847Z,4.40
2023-03-07T13:20:45.973Z,4.30
2023-03-07T13:23:29.230Z,4.43
2023-03-07T13:26:04.223Z,4.77
2023-03-07T13:29:02.848Z,4.50
2023-03-07T13:31:53.735Z,4.37
2023-03-07T13:34:52.663Z,4.30
2023-03-07T13:37:54.903Z,4.57
2023-03-07T13:40:58.429Z,4.30
2023-03-07T13:44:04.254Z,4.60
2023-03-07T13:46:55.622Z,4.30
2023-03-07T13:49:48.024Z,3.87
2023-03-07T13:52:49.741Z,4.07
2023-03-07T13:55:34.828Z,4.27
2023-03-07T13:58:26.678Z,4.10
2023-03-07T14:01:02.924Z,4.53
2023-03-07T14:03:40.068Z,4.27
2023-03-07T14:06:19.870Z,4.77
2023-03-07T14:08:53.334Z,4.03
2023-03-07T14:11:32.712Z,4.50
2023-03-07T14:14:47.449Z,4.70
2023-03-07T14:17:57.075Z,4.30
2023-03-07T14:20:57.020Z,4.70
2023-03-07T14:24:15.643Z,4.70
2023-03-07T14:26:51.879Z,4.80
2023-03-07T14:29:24.974Z,4.53
2023-03-07T14:32:00.670Z,4.87
2023-03-07T14:34:35.023Z,4.90
2023-03-07T14:37:13.983Z,4.20
2023-03-07T14:40:04.426Z,4.50
2023-03-07T14:42:46.814Z,4.03
2023-03-07T14:45:39.750Z,4.30
2023-03-07T14:48:35.240Z,4.27
2023-03-07T14:51:17.832Z,4.10
2023-03-07T14:53:48.244Z,4.13
2023-03-07T14:56:27.818Z,3.27
2023-03-07T14:59:03.047Z,5.07
2023-03-07T15:01:35.694Z,4.27
2023-03-07T15:04:23.245Z,3.03
2023-03-07T15:06:59.594Z,2.10
2023-03-07T15:09:30.585Z,4.37
2023-03-07T15:12:11.074Z,2.60
2023-03-07T15:14:49.765Z,2.60
2023-03-07T15:17:26.591Z,1.90
2023-03-07T15:20:03.950Z,4.73
2023-03-07T15:22:40.255Z,3.83
2023-03-07T15:25:23.959Z,2.23
2023-03-07T15:28:07.885Z,2.07
2023-03-07T15:30:42.169Z,1.77
2023-03-07T15:33:23.617Z,1.80
2023-03-07T15:36:11.913Z,1.90
2023-03-07T15:38:43.548Z,1.97
2023-03-07T15:41:30.205Z,2.20
2023-03-07T15:44:21.166Z,2.80
2023-03-07T15:46:57.599Z,7.37
2023-03-07T15:49:39.177Z,9.17
2023-03-07T15:52:19.031Z,18.97
2023-03-07T15:54:54.900Z,31.63
2023-03-07T15:57:29.718Z,14.47
2023-03-07T16:00:08.306Z,7.00
2023-03-07T16:02:48.382Z,7.37
2023-03-07T16:05:41.688Z,4.10
2023-03-07T16:08:17.511Z,3.50
2023-03-07T16:10:55.970Z,4.30
2023-03-07T16:13:33.837Z,3.17
2023-03-07T16:16:22.558Z,3.97
2023-03-07T16:18:54.079Z,3.43
2023-03-07T16:21:24.253Z,2.93
2023-03-07T16:23:54.704Z,2.77
2023-03-07T16:26:27.443Z,10.87
2023-03-07T16:28:58.155Z,3.17
2023-03-07T16:31:33.042Z,3.00
2023-03-07T16:34:03.616Z,6.40
2023-03-07T16:36:33.698Z,3.83
2023-03-07T16:39:05.086Z,4.60
2023-03-07T16:41:35.261Z,3.93
2023-03-07T16:44:05.961Z,4.00
2023-03-07T16:46:38.818Z,5.43
2023-03-07T16:49:09.004Z,3.30
2023-03-07T16:51:39.050Z,3.70
2023-03-07T16:54:10.650Z,3.40
2023-03-07T16:56:45.299Z,3.60
2023-03-07T16:59:18.914Z,3.53
2023-03-07T17:01:54.662Z,3.70
2023-03-07T17:04:24.888Z,5.07
2023-03-07T17:07:04.848Z,5.67
2023-03-07T17:09:35.306Z,6.93
2023-03-07T17:12:06.098Z,6.83
2023-03-07T17:14:40.408Z,7.17
2023-03-07T17:17:22.294Z,6.90
2023-03-07T17:19:52.477Z,6.50
2023-03-07T17:22:22.689Z,5.67
2023-03-07T17:24:55.544Z,4.93
2023-03-07T17:27:26.093Z,7.13
2023-03-07T17:29:57.719Z,6.47
2023-03-07T17:32:30.453Z,6.70
2023-03-07T17:35:00.658Z,5.90
2023-03-07T17:37:31.450Z,5.87
2023-03-07T17:40:02.134Z,6.30
2023-03-07T17:42:32.907Z,6.77
2023-03-07T17:45:02.982Z,6.07
2023-03-07T17:47:36.300Z,6.27
2023-03-07T17:50:13.779Z,6.87
2023-03-07T17:52:44.186Z,7.57
2023-03-07T17:55:14.481Z,7.63
2023-03-07T17:57:44.894Z,8.70
2023-03-07T18:00:19.116Z,9.17
2023-03-07T18:02:55.671Z,8.33
2023-03-07T18:05:27.931Z,9.37
2023-03-07T18:07:58.593Z,7.90
2023-03-07T18:10:28.757Z,8.83
2023-03-07T18:13:00.298Z,10.30
2023-03-07T18:15:30.581Z,10.17
2023-03-07T18:18:08.903Z,8.63
2023-03-07T18:20:39.146Z,8.20
2023-03-07T18:23:09.321Z,9.00
2023-03-07T18:25:41.642Z,8.77
2023-03-07T18:28:14.171Z,8.33
2023-03-07T18:30:44.984Z,9.20
2023-03-07T18:33:17.720Z,10.97
2023-03-07T18:35:48.084Z,10.20
2023-03-07T18:38:18.159Z,9.30
2023-03-07T18:40:50.268Z,9.07
2023-03-07T18:43:20.455Z,9.17
2023-03-07T18:45:53.236Z,8.57
2023-03-07T18:48:25.959Z,9.13
2023-03-07T18:51:01.312Z,8.23
2023-03-07T18:53:34.552Z,9.17
2023-03-07T18:56:09.866Z,8.13
2023-03-07T18:58:40.487Z,7.70
2023-03-07T19:01:16.423Z,7.47
2023-03-07T19:03:51.909Z,7.17
2023-03-07T19:06:27.029Z,7.67
2023-03-07T19:08:58.161Z,6.63
2023-03-07T19:11:29.311Z,6.63
2023-03-07T19:14:00.138Z,6.40
2023-03-07T19:16:31.828Z,5.97
2023-03-07T19:19:04.633Z,6.10
2023-03-07T19:21:36.094Z,6.30
2023-03-07T19:24:08.182Z,6.57
2023-03-07T19:26:38.294Z,7.13
2023-03-07T19:29:09.764Z,7.33
2023-03-07T19:31:40.996Z,7.53
2023-03-07T19:34:14.312Z,6.03
2023-03-07T19:36:44.599Z,5.33
2023-03-07T19:39:20.338Z,6.73
2023-03-07T19:41:51.122Z,6.60
2023-03-07T19:44:24.680Z,8.80
2023-03-07T19:46:55.895Z,9.63
2023-03-07T19:49:29.291Z,9.07
2023-03-07T19:51:59.496Z,11.23
2023-03-07T19:54:29.652Z,10.90
2023-03-07T19:57:00.027Z,9.63
2023-03-07T19:59:30.360Z,10.93
2023-03-07T20:02:00.470Z,11.10
2023-03-07T20:04:33.211Z,10.93
2023-03-07T20:07:03.457Z,11.50
2023-03-07T20:09:33.677Z,11.23
2023-03-07T20:12:03.855Z,10.50
2023-03-07T20:14:34.032Z,10.80
2023-03-07T20:17:06.659Z,11.63
2023-03-07T20:19:39.578Z,10.67
2023-03-07T20:22:09.738Z,10.83
2023-03-07T20:24:39.884Z,9.60
2023-03-07T20:27:10.006Z,10.73
2023-03-07T20:29:40.231Z,10.13
2023-03-07T20:32:11.603Z,10.00
2023-03-07T20:34:44.796Z,10.10
2023-03-07T20:37:15.123Z,9.77
2023-03-07T20:39:45.244Z,9.93
2023-03-07T20:42:15.529Z,10.00
2023-03-07T20:44:45.746Z,11.03
2023-03-07T20:47:15.942Z,9.73
2023-03-07T20:49:48.697Z,10.10
2023-03-07T20:52:18.984Z,11.10
2023-03-07T20:54:49.195Z,12.10
2023-03-07T20:57:19.392Z,11.63
2023-03-07T20:59:49.650Z,11.30
2023-03-07T21:02:19.824Z,11.97
2023-03-07T21:04:52.922Z,11.77
2023-03-07T21:07:23.007Z,12.23
2023-03-07T21:09:53.416Z,9.67
2023-03-07T21:12:25.964Z,10.00
2023-03-07T21:14:58.633Z,9.97
2023-03-07T21:17:31.048Z,9.37
2023-03-07T21:20:04.808Z,9.37
2023-03-07T21:22:36.153Z,9.37
2023-03-07T21:25:06.620Z,9.40
2023-03-07T21:27:36.740Z,9.27
2023-03-07T21:30:08.249Z,9.70
2023-03-07T21:32:38.420Z,8.30
2023-03-07T21:35:15.510Z,7.93
2023-03-07T21:37:45.641Z,7.57
2023-03-07T21:40:20.357Z,6.83
2023-03-07T21:42:50.600Z,6.60
2023-03-07T21:45:20.853Z,6.17
2023-03-07T21:47:53.391Z,7.07
2023-03-07T21:50:26.518Z,6.00
2023-03-07T21:52:56.620Z,5.80
2023-03-07T21:55:27.213Z,5.03
2023-03-07T21:57:57.354Z,6.63
2023-03-07T22:00:27.936Z,7.83
2023-03-07T22:02:58.236Z,6.63
2023-03-07T22:05:30.990Z,7.30
2023-03-07T22:08:01.079Z,7.60
2023-03-07T22:10:31.287Z,6.50
2023-03-07T22:13:02.045Z,5.93
2023-03-07T22:15:32.322Z,6.13
2023-03-07T22:18:02.514Z,6.10
2023-03-07T22:20:35.278Z,6.13
2023-03-07T22:23:10.280Z,5.17
2023-03-07T22:25:42.965Z,5.37
2023-03-07T22:28:16.642Z,5.87
2023-03-07T22:30:52.384Z,5.73
2023-03-07T22:33:26.679Z,5.83
2023-03-07T22:36:04.981Z,6.03
2023-03-07T22:38:36.083Z,6.00
2023-03-07T22:41:09.082Z,5.70
2023-03-07T22:43:40.758Z,6.43
2023-03-07T22:46:12.296Z,6.83
2023-03-07T22:48:43.204Z,6.53
2023-03-07T22:51:28.241Z,6.67
2023-03-07T22:53:58.689Z,6.53
2023-03-07T22:56:30.645Z,6.20
2023-03-07T22:59:00.741Z,6.60
2023-03-07T23:01:34.730Z,6.80
2023-03-07T23:04:08.493Z,6.50
2023-03-07T23:06:42.434Z,6.80
2023-03-07T23:09:12.927Z,6.40
2023-03-07T23:11:43.843Z,7.40
2023-03-07T23:14:13.926Z,6.77
2023-03-07T23:16:44.761Z,6.83
2023-03-07T23:19:14.926Z,7.70
2023-03-07T23:21:47.891Z,7.83
2023-03-07T23:24:18.035Z,6.80
2023-03-07T23:26:48.874Z,6.37
2023-03-07T23:29:27.654Z,6.43
2023-03-07T23:31:59.008Z,6.53
2023-03-07T23:34:29.063Z,5.50
2023-03-07T23:37:02.073Z,6.30
2023-03-07T23:39:32.379Z,6.20
2023-03-07T23:42:03.123Z,6.00
2023-03-07T23:44:33.255Z,5.00
2023-03-07T23:47:03.454Z,5.13
2023-03-07T23:49:33.625Z,5.10
2023-03-07T23:52:06.748Z,5.23
2023-03-07T23:54:36.811Z,5.30
2023-03-07T23:57:07.191Z,5.20
2023-03-07T23:59:39.868Z,4.73
